sensor_id;sensor_type;location;lat;lon;timestamp;pressure;altitude;pressure_sealevel;temperature;humidity
35758;BME280;21879;50.110;18.900;2022-10-04T00:03:38;98818.48;;;11.41;76.07
35758;BME280;21879;50.110;18.900;2022-10-04T00:14:12;98811.74;;;11.36;76.20
35758;BME280;21879;50.110;18.900;2022-10-04T00:35:50;98813.52;;;11.34;76.42
35758;BME280;21879;50.110;18.900;2022-10-04T00:46:21;98807.70;;;11.40;76.52
35758;BME280;21879;50.110;18.900;2022-10-04T00:56:53;98805.31;;;11.36;76.38
35758;BME280;21879;50.110;18.900;2022-10-04T01:07:25;98796.14;;;11.31;76.56
35758;BME280;21879;50.110;18.900;2022-10-04T01:18:17;98790.57;;;11.31;76.43
35758;BME280;21879;50.110;18.900;2022-10-04T01:28:57;98792.56;;;11.23;76.57
35758;BME280;21879;50.110;18.900;2022-10-04T01:39:27;98790.58;;;11.30;76.71
35758;BME280;21879;50.110;18.900;2022-10-04T01:49:56;98793.20;;;11.28;76.60
35758;BME280;21879;50.110;18.900;2022-10-04T02:00:28;98781.21;;;11.26;76.74
35758;BME280;21879;50.110;18.900;2022-10-04T02:10:58;98785.88;;;11.30;76.69
35758;BME280;21879;50.110;18.900;2022-10-04T02:21:27;98785.40;;;11.24;76.55
35758;BME280;21879;50.110;18.900;2022-10-04T02:31:55;98784.73;;;11.22;76.66
35758;BME280;21879;50.110;18.900;2022-10-04T02:42:43;98787.52;;;11.23;76.81
35758;BME280;21879;50.110;18.900;2022-10-04T02:53:20;98778.40;;;11.29;76.83
35758;BME280;21879;50.110;18.900;2022-10-04T03:03:54;98777.55;;;11.26;76.67
35758;BME280;21879;50.110;18.900;2022-10-04T03:14:25;98774.20;;;11.31;76.76
35758;BME280;21879;50.110;18.900;2022-10-04T03:24:56;98784.45;;;11.31;76.59
35758;BME280;21879;50.110;18.900;2022-10-04T03:35:29;98788.95;;;11.19;76.62
35758;BME280;21879;50.110;18.900;2022-10-04T03:46:00;98787.86;;;11.07;76.70
35758;BME280;21879;50.110;18.900;2022-10-04T03:56:32;98785.12;;;11.03;76.93
35758;BME280;21879;50.110;18.900;2022-10-04T04:07:04;98789.05;;;11.10;77.10
35758;BME280;21879;50.110;18.900;2022-10-04T04:17:40;98800.84;;;11.13;77.00
35758;BME280;21879;50.110;18.900;2022-10-04T04:28:19;98802.91;;;11.15;76.85
35758;BME280;21879;50.110;18.900;2022-10-04T04:38:48;98807.51;;;11.08;76.60
35758;BME280;21879;50.110;18.900;2022-10-04T04:49:35;98818.33;;;11.04;76.41
35758;BME280;21879;50.110;18.900;2022-10-04T05:00:07;98830.06;;;11.15;76.26
35758;BME280;21879;50.110;18.900;2022-10-04T05:10:46;98842.33;;;11.24;76.14
35758;BME280;21879;50.110;18.900;2022-10-04T05:21:21;98855.10;;;11.36;75.73
35758;BME280;21879;50.110;18.900;2022-10-04T05:31:56;98862.48;;;11.45;75.57
35758;BME280;21879;50.110;18.900;2022-10-04T05:42:35;98879.16;;;11.65;75.06
35758;BME280;21879;50.110;18.900;2022-10-04T05:53:15;98889.52;;;11.58;74.67
35758;BME280;21879;50.110;18.900;2022-10-04T06:03:58;98891.11;;;11.56;74.47
35758;BME280;21879;50.110;18.900;2022-10-04T06:25:38;98913.70;;;11.60;74.95
35758;BME280;21879;50.110;18.900;2022-10-04T06:36:24;98924.89;;;11.56;74.82
35758;BME280;21879;50.110;18.900;2022-10-04T06:47:03;98938.00;;;11.50;74.62
35758;BME280;21879;50.110;18.900;2022-10-04T06:57:53;98948.67;;;11.46;74.86
35758;BME280;21879;50.110;18.900;2022-10-04T07:08:32;98961.78;;;11.58;74.83
35758;BME280;21879;50.110;18.900;2022-10-04T07:19:26;98974.46;;;11.62;74.50
35758;BME280;21879;50.110;18.900;2022-10-04T07:29:55;98978.43;;;11.66;74.47
35758;BME280;21879;50.110;18.900;2022-10-04T07:40:31;98978.91;;;11.91;74.73
35758;BME280;21879;50.110;18.900;2022-10-04T07:51:06;98985.77;;;12.00;73.44
35758;BME280;21879;50.110;18.900;2022-10-04T08:01:43;98996.61;;;11.98;72.55
35758;BME280;21879;50.110;18.900;2022-10-04T08:12:20;99009.13;;;12.01;72.21
35758;BME280;21879;50.110;18.900;2022-10-04T08:22:59;99019.22;;;12.03;72.15
35758;BME280;21879;50.110;18.900;2022-10-04T08:33:43;99028.95;;;12.04;71.91
35758;BME280;21879;50.110;18.900;2022-10-04T08:55:30;99048.83;;;12.06;71.36
35758;BME280;21879;50.110;18.900;2022-10-04T09:06:27;99050.62;;;12.17;71.02
35758;BME280;21879;50.110;18.900;2022-10-04T09:17:14;99059.50;;;12.34;70.81
35758;BME280;21879;50.110;18.900;2022-10-04T10:01:01;99091.59;;;12.66;69.98
35758;BME280;21879;50.110;18.900;2022-10-04T10:11:41;99093.92;;;12.89;69.12
35758;BME280;21879;50.110;18.900;2022-10-04T10:22:49;99101.59;;;13.04;68.51
35758;BME280;21879;50.110;18.900;2022-10-04T10:44:56;99112.98;;;13.29;66.38
35758;BME280;21879;50.110;18.900;2022-10-04T11:07:00;99113.86;;;13.76;65.25
35758;BME280;21879;50.110;18.900;2022-10-04T11:17:41;99130.37;;;13.92;64.88
35758;BME280;21879;50.110;18.900;2022-10-04T11:28:19;99126.55;;;14.01;63.86
35758;BME280;21879;50.110;18.900;2022-10-04T11:49:48;99130.67;;;13.96;63.64
35758;BME280;21879;50.110;18.900;2022-10-04T12:00:24;99129.88;;;14.02;62.86
35758;BME280;21879;50.110;18.900;2022-10-04T12:11:18;99134.68;;;13.96;62.84
35758;BME280;21879;50.110;18.900;2022-10-04T12:22:01;99132.91;;;13.97;61.74
35758;BME280;21879;50.110;18.900;2022-10-04T12:32:37;99137.68;;;13.95;60.30
35758;BME280;21879;50.110;18.900;2022-10-04T12:43:08;99144.17;;;14.04;59.83
35758;BME280;21879;50.110;18.900;2022-10-04T12:53:49;99138.59;;;14.02;59.19
35758;BME280;21879;50.110;18.900;2022-10-04T13:04:30;99150.14;;;14.12;59.39
35758;BME280;21879;50.110;18.900;2022-10-04T13:15:14;99145.52;;;14.28;59.67
35758;BME280;21879;50.110;18.900;2022-10-04T13:25:59;99139.58;;;14.46;59.59
35758;BME280;21879;50.110;18.900;2022-10-04T13:36:48;99153.81;;;14.43;59.17
35758;BME280;21879;50.110;18.900;2022-10-04T13:58:30;99166.95;;;14.42;58.79
35758;BME280;21879;50.110;18.900;2022-10-04T14:09:35;99168.95;;;14.49;58.87
35758;BME280;21879;50.110;18.900;2022-10-04T14:42:55;99164.28;;;14.66;58.55
35758;BME280;21879;50.110;18.900;2022-10-04T14:53:29;99166.77;;;14.64;58.34
35758;BME280;21879;50.110;18.900;2022-10-04T15:04:20;99178.85;;;14.64;58.58
35758;BME280;21879;50.110;18.900;2022-10-04T15:15:21;99186.73;;;14.64;59.31
35758;BME280;21879;50.110;18.900;2022-10-04T15:25:58;99202.27;;;14.55;59.71
35758;BME280;21879;50.110;18.900;2022-10-04T15:36:44;99214.83;;;14.58;60.83
35758;BME280;21879;50.110;18.900;2022-10-04T15:47:21;99220.56;;;14.70;61.29
35758;BME280;21879;50.110;18.900;2022-10-04T15:58:15;99227.98;;;14.77;61.36
35758;BME280;21879;50.110;18.900;2022-10-04T16:09:07;99231.30;;;14.76;61.45
35758;BME280;21879;50.110;18.900;2022-10-04T16:19:52;99242.92;;;14.63;61.70
35758;BME280;21879;50.110;18.900;2022-10-04T16:30:26;99244.05;;;14.45;61.99
35758;BME280;21879;50.110;18.900;2022-10-04T16:41:25;99254.91;;;14.10;62.09
35758;BME280;21879;50.110;18.900;2022-10-04T16:52:19;99267.09;;;13.50;62.71
35758;BME280;21879;50.110;18.900;2022-10-04T17:03:04;99270.21;;;13.19;63.90
35758;BME280;21879;50.110;18.900;2022-10-04T17:13:37;99278.72;;;13.27;63.90
35758;BME280;21879;50.110;18.900;2022-10-04T17:24:26;99286.68;;;13.15;64.06
35758;BME280;21879;50.110;18.900;2022-10-04T17:35:11;99294.30;;;13.05;63.97
35758;BME280;21879;50.110;18.900;2022-10-04T17:46:13;99305.29;;;12.85;63.98
35758;BME280;21879;50.110;18.900;2022-10-04T17:56:46;99318.52;;;12.70;64.24
35758;BME280;21879;50.110;18.900;2022-10-04T18:07:19;99325.21;;;12.62;64.32
35758;BME280;21879;50.110;18.900;2022-10-04T18:17:49;99329.68;;;12.48;64.20
35758;BME280;21879;50.110;18.900;2022-10-04T18:28:22;99338.67;;;12.04;64.02
35758;BME280;21879;50.110;18.900;2022-10-04T18:49:54;99353.94;;;11.76;64.51
35758;BME280;21879;50.110;18.900;2022-10-04T19:00:32;99372.80;;;11.60;64.35
35758;BME280;21879;50.110;18.900;2022-10-04T19:11:28;99380.14;;;11.49;64.48
35758;BME280;21879;50.110;18.900;2022-10-04T19:22:14;99383.61;;;11.51;64.68
35758;BME280;21879;50.110;18.900;2022-10-04T19:33:00;99375.95;;;11.48;64.70
35758;BME280;21879;50.110;18.900;2022-10-04T19:43:41;99395.86;;;10.86;64.30
35758;BME280;21879;50.110;18.900;2022-10-04T19:54:17;99402.29;;;10.66;65.49
35758;BME280;21879;50.110;18.900;2022-10-04T20:04:46;99417.78;;;10.78;65.69
35758;BME280;21879;50.110;18.900;2022-10-04T20:15:20;99419.70;;;10.88;65.72
35758;BME280;21879;50.110;18.900;2022-10-04T20:26:09;99425.10;;;11.01;65.34
35758;BME280;21879;50.110;18.900;2022-10-04T20:36:57;99439.89;;;10.93;64.94
35758;BME280;21879;50.110;18.900;2022-10-04T20:47:37;99452.02;;;10.71;64.56
35758;BME280;21879;50.110;18.900;2022-10-04T20:58:26;99466.79;;;10.53;65.00
35758;BME280;21879;50.110;18.900;2022-10-04T21:08:57;99470.25;;;10.51;64.83
35758;BME280;21879;50.110;18.900;2022-10-04T21:19:45;99468.80;;;10.35;64.78
35758;BME280;21879;50.110;18.900;2022-10-04T21:30:16;99470.34;;;10.28;64.54
35758;BME280;21879;50.110;18.900;2022-10-04T21:40:45;99488.02;;;10.22;64.39
35758;BME280;21879;50.110;18.900;2022-10-04T21:51:13;99481.29;;;10.29;64.20
35758;BME280;21879;50.110;18.900;2022-10-04T22:01:41;99472.16;;;10.14;63.68
35758;BME280;21879;50.110;18.900;2022-10-04T22:12:09;99481.98;;;9.96;63.95
35758;BME280;21879;50.110;18.900;2022-10-04T22:22:37;99483.70;;;9.95;63.84
35758;BME280;21879;50.110;18.900;2022-10-04T22:33:32;99472.32;;;9.78;63.72
35758;BME280;21879;50.110;18.900;2022-10-04T22:44:09;99459.90;;;9.64;63.70
35758;BME280;21879;50.110;18.900;2022-10-04T22:54:41;99461.24;;;9.57;63.65
35758;BME280;21879;50.110;18.900;2022-10-04T23:05:15;99472.44;;;9.43;63.64
35758;BME280;21879;50.110;18.900;2022-10-04T23:15:44;99480.90;;;9.37;63.64
35758;BME280;21879;50.110;18.900;2022-10-04T23:26:16;99474.71;;;9.47;63.79
35758;BME280;21879;50.110;18.900;2022-10-04T23:36:47;99478.39;;;9.29;63.46
35758;BME280;21879;50.110;18.900;2022-10-04T23:47:18;99483.05;;;9.24;63.46
35758;BME280;21879;50.110;18.900;2022-10-04T23:57:46;99480.05;;;9.00;63.09
